UTSS

Details ICAO UTSS (SKD)
Name SAMARKAND
Region Tajikistan, Turkmenistan and Uzbekistan
Timezone Asia/Samarkand (UTC+5.0)
Plans Departing 19
Arriving 27
Stats Elevation 2,224 ft / 678 m (AMSL)
Location 39.700547° 66.983829°
Runways 1
Magnetic Variation 5.042° E
Sunrise 2018-05-25 00:11:34 UTC / 2018-05-25 05:11:34 Local
Sunset 2018-05-25 14:49:16 UTC / 2018-05-25 19:49:16 Local
Advertisement - Login to hide

Runways

ID Width Length Bearing (true) Bearing (mag) Surface Threshold Offset Overrun Length
09 161 ft / 49 m 10,189 ft / 3,106 m 95.70° 90.66° Asphalt 0 ft / 0 m 200 ft / 61 m
27 161 ft / 49 m 10,189 ft / 3,106 m 275.72° 270.68° Asphalt 0 ft / 0 m 200 ft / 61 m

Approach Navaids

Runway Type Ident Frequency Range Bearing (true) Bearing (mag) Slope Elevation
09 Localiser IMZ 109.50 MHz 18 nm / 33 km 95.86° 90.81° - 2,224 ft / 678 m (AMSL)
09 Glidescope IMZ 109.50 MHz 10 nm / 19 km 95.71° 90.67° 3.00° 2,224 ft / 678 m (AMSL)

Map

Weather


0- 5 10 15 20 25 30 35+ Temperature / ° C

Clouds and Precipitation
Forecast for 2018-05-24 18:00 UTC. Updated 3 hours ago

Ground ~20,000 ft ~40,000 ft Winds

METAR

UTSS 241930Z 13006KT 100V170 6000 NSC 17/M02 Q1015 R09/70D NOSIG

TAF

TAF UTSS 241100Z 2412/2512 09012G22KT 9999 NSC TEMPO 2412/2415 07020G30KT

Frequencies

Tower 118.30 MHz TWR
Approach 120.80 MHz APP
Warning: Do not use this data for real-world aviation or navigation. No guarantee of current accuracy is given.